Time;durP1;ratioP1;P1;durP2;ratioP2;P2;SDS_P1;SDS_P2;PMS_P1;PMS_P2;Temp;Humidity;BMP_temperature;BMP_pressure;BME280_temperature;BME280_humidity;BME280_pressure;Samples;Min_cycle;Max_cycle;Signal;HPM_P1;HPM_P2
2022/07/24 00:00:42;;;;;;;28.13;20.33;;;;;;;;;;6163359;28;20522;-78
2022/07/24 00:03:43;;;;;;;29.13;21.37;;;;;;;;;;6179985;28;20125;-78
2022/07/24 00:06:43;;;;;;;31.03;21.27;;;;;;;;;;6176717;28;20049;-79
2022/07/24 00:09:43;;;;;;;26.30;19.13;;;;;;;;;;6169475;28;20042;-78
2022/07/24 00:12:43;;;;;;;25.92;19.65;;;;;;;;;;6159761;28;20505;-78
2022/07/24 00:15:43;;;;;;;30.70;20.70;;;;;;;;;;6166066;28;20030;-78
2022/07/24 00:18:44;;;;;;;28.37;20.10;;;;;;;;;;6183279;28;20028;-78
2022/07/24 00:21:44;;;;;;;29.10;20.07;;;;;;;;;;6160984;28;20022;-79
2022/07/24 00:24:44;;;;;;;27.25;19.15;;;;;;;;;;6174699;28;20026;-79
2022/07/24 00:27:44;;;;;;;30.63;21.47;;;;;;;;;;6158889;28;20030;-78
2022/07/24 00:30:44;;;;;;;25.40;20.93;;;;;;;;;;6162073;28;20022;-79
2022/07/24 00:33:45;;;;;;;30.10;22.37;;;;;;;;;;6150245;28;20019;-79
2022/07/24 00:36:45;;;;;;;30.87;23.63;;;;;;;;;;6172611;28;20018;-79
2022/07/24 00:39:47;;;;;;;31.47;24.07;;;;;;;;;;6182876;28;20021;-78
2022/07/24 00:42:47;;;;;;;28.30;22.35;;;;;;;;;;6165387;28;20027;-78
2022/07/24 00:45:47;;;;;;;31.17;23.17;;;;;;;;;;6184199;28;20045;-78
2022/07/24 00:48:47;;;;;;;33.33;24.43;;;;;;;;;;6167744;28;20030;-79
2022/07/24 00:51:49;;;;;;;31.30;24.67;;;;;;;;;;6180977;28;20740;-79
2022/07/24 00:54:49;;;;;;;30.27;23.88;;;;;;;;;;6182715;28;20843;-78
2022/07/24 00:57:50;;;;;;;30.13;23.73;;;;;;;;;;6189652;28;20029;-78
2022/07/24 01:00:52;;;;;;;30.77;22.67;;;;;;;;;;6184026;28;20053;-78
2022/07/24 01:03:53;;;;;;;29.92;21.95;;;;;;;;;;6169003;28;20569;-78
2022/07/24 01:06:53;;;;;;;33.07;24.97;;;;;;;;;;6169266;28;20029;-78
2022/07/24 01:09:54;;;;;;;29.73;23.03;;;;;;;;;;6172005;28;20034;-78
2022/07/24 01:12:55;;;;;;;32.30;23.97;;;;;;;;;;6173560;28;20486;-78
2022/07/24 01:15:55;;;;;;;32.77;21.60;;;;;;;;;;6153144;28;20034;-78
2022/07/24 01:18:55;;;;;;;26.70;20.37;;;;;;;;;;6153002;28;20262;-78
2022/07/24 01:21:55;;;;;;;30.80;22.73;;;;;;;;;;6158326;28;20486;-77
2022/07/24 01:24:56;;;;;;;26.57;20.70;;;;;;;;;;6170816;28;20038;-77
2022/07/24 01:27:57;;;;;;;28.87;21.67;;;;;;;;;;6191559;28;20018;-77
2022/07/24 01:30:57;;;;;;;30.38;21.58;;;;;;;;;;6166494;28;20025;-77
2022/07/24 01:33:57;;;;;;;29.20;20.65;;;;;;;;;;6159789;28;20072;-78
2022/07/24 01:36:58;;;;;;;24.97;19.00;;;;;;;;;;6177425;28;20023;-78
2022/07/24 01:39:58;;;;;;;24.83;19.67;;;;;;;;;;6183613;28;20140;-78
2022/07/24 01:42:58;;;;;;;25.90;18.20;;;;;;;;;;6155997;28;20033;-78
2022/07/24 01:45:58;;;;;;;21.65;18.52;;;;;;;;;;6177662;28;20023;-78
2022/07/24 01:48:58;;;;;;;21.87;15.70;;;;;;;;;;6163848;28;20022;-78
2022/07/24 01:51:59;;;;;;;22.43;15.87;;;;;;;;;;6178334;28;20031;-77
2022/07/24 01:54:59;;;;;;;24.27;15.57;;;;;;;;;;6181548;28;20026;-77
2022/07/24 01:57:59;;;;;;;22.17;16.57;;;;;;;;;;6186077;28;20454;-77
2022/07/24 02:00:59;;;;;;;21.23;17.10;;;;;;;;;;6179563;28;20057;-77
2022/07/24 02:04:00;;;;;;;23.50;14.93;;;;;;;;;;6188741;28;20023;-77
2022/07/24 02:07:00;;;;;;;23.17;15.17;;;;;;;;;;6197831;28;20026;-77
2022/07/24 02:10:00;;;;;;;22.23;15.10;;;;;;;;;;6175829;28;20027;-78
2022/07/24 02:13:01;;;;;;;20.83;15.37;;;;;;;;;;6145057;28;20113;-78
2022/07/24 02:16:01;;;;;;;24.00;15.00;;;;;;;;;;6169656;28;20022;-78
2022/07/24 02:19:02;;;;;;;22.97;14.93;;;;;;;;;;6170153;28;20462;-78
2022/07/24 02:22:02;;;;;;;22.60;16.40;;;;;;;;;;6179775;28;20054;-78
2022/07/24 02:25:03;;;;;;;20.53;14.20;;;;;;;;;;6156151;28;20031;-78
2022/07/24 02:28:03;;;;;;;23.40;14.70;;;;;;;;;;6177195;28;20055;-78
2022/07/24 02:31:03;;;;;;;19.40;14.07;;;;;;;;;;6194641;28;20109;-78
2022/07/24 02:34:04;;;;;;;20.10;13.80;;;;;;;;;;6188677;28;20025;-77
2022/07/24 02:37:04;;;;;;;18.65;13.85;;;;;;;;;;6189832;28;20022;-77
2022/07/24 02:40:05;;;;;;;17.47;12.40;;;;;;;;;;6148059;28;20023;-77
2022/07/24 02:43:05;;;;;;;19.87;15.03;;;;;;;;;;6155934;28;20475;-78
2022/07/24 02:46:05;;;;;;;17.20;12.87;;;;;;;;;;6171722;28;20423;-77
2022/07/24 02:49:05;;;;;;;18.17;12.55;;;;;;;;;;6174893;28;20022;-77
2022/07/24 02:52:05;;;;;;;16.40;11.80;;;;;;;;;;6169032;28;20022;-78
2022/07/24 02:55:06;;;;;;;17.23;12.07;;;;;;;;;;6165672;28;20073;-77
2022/07/24 02:58:06;;;;;;;17.97;12.07;;;;;;;;;;6165148;28;20018;-78
2022/07/24 03:01:06;;;;;;;15.90;11.93;;;;;;;;;;6160277;28;20039;-78
2022/07/24 03:04:07;;;;;;;18.40;12.40;;;;;;;;;;6163958;28;20022;-78
2022/07/24 03:07:07;;;;;;;20.50;12.33;;;;;;;;;;6185331;28;20474;-78
2022/07/24 03:10:08;;;;;;;21.08;11.63;;;;;;;;;;6194450;28;20338;-78
2022/07/24 03:13:08;;;;;;;17.25;10.93;;;;;;;;;;6181583;28;20023;-78
2022/07/24 03:16:09;;;;;;;18.13;11.63;;;;;;;;;;6188940;28;20038;-78
2022/07/24 03:19:10;;;;;;;17.03;11.27;;;;;;;;;;6165383;28;20450;-78
2022/07/24 03:22:10;;;;;;;19.38;12.57;;;;;;;;;;6170490;28;20509;-78
2022/07/24 03:25:10;;;;;;;18.15;12.68;;;;;;;;;;6185182;28;20097;-78
2022/07/24 03:28:10;;;;;;;15.77;11.17;;;;;;;;;;6176264;28;20041;-78
2022/07/24 03:31:10;;;;;;;16.80;11.40;;;;;;;;;;6175829;28;20054;-78
2022/07/24 03:34:11;;;;;;;17.27;11.75;;;;;;;;;;6172749;28;20026;-78
2022/07/24 03:37:11;;;;;;;18.73;10.67;;;;;;;;;;6173142;28;20019;-78
2022/07/24 03:40:12;;;;;;;21.42;11.60;;;;;;;;;;6185773;28;20011;-78
2022/07/24 03:43:12;;;;;;;19.00;12.00;;;;;;;;;;6189144;28;20042;-78
2022/07/24 03:46:12;;;;;;;17.43;10.97;;;;;;;;;;6152791;28;20030;-78
2022/07/24 03:49:12;;;;;;;15.60;10.00;;;;;;;;;;6166697;28;20033;-78
2022/07/24 03:52:13;;;;;;;17.03;11.23;;;;;;;;;;6181384;28;20023;-77
2022/07/24 03:55:13;;;;;;;14.97;11.40;;;;;;;;;;6158100;28;20077;-78
2022/07/24 03:58:13;;;;;;;15.20;11.43;;;;;;;;;;6164809;28;20025;-78
2022/07/24 04:01:13;;;;;;;16.07;12.40;;;;;;;;;;6174811;28;20114;-78
2022/07/24 04:04:13;;;;;;;15.00;10.50;;;;;;;;;;6162373;28;20030;-78
2022/07/24 04:07:14;;;;;;;14.63;10.50;;;;;;;;;;6170790;28;20034;-78
2022/07/24 04:10:14;;;;;;;30.17;11.50;;;;;;;;;;6183990;28;20039;-78
2022/07/24 04:13:14;;;;;;;19.93;11.40;;;;;;;;;;6187580;28;20080;-78
2022/07/24 04:16:14;;;;;;;14.90;11.55;;;;;;;;;;6181850;28;20231;-78
2022/07/24 04:19:14;;;;;;;16.77;9.87;;;;;;;;;;6183609;28;20034;-77
2022/07/24 04:22:15;;;;;;;17.63;10.27;;;;;;;;;;6175501;28;20050;-77
2022/07/24 04:25:15;;;;;;;14.40;10.10;;;;;;;;;;6179278;28;20026;-77
2022/07/24 04:28:16;;;;;;;13.43;10.37;;;;;;;;;;6184760;28;20034;-77
2022/07/24 04:31:16;;;;;;;13.83;10.30;;;;;;;;;;6182229;28;20019;-77
2022/07/24 04:34:16;;;;;;;15.17;10.93;;;;;;;;;;6159962;28;20265;-77
2022/07/24 04:37:17;;;;;;;16.10;10.40;;;;;;;;;;6170480;28;20031;-77
2022/07/24 04:40:17;;;;;;;14.77;9.73;;;;;;;;;;6188802;28;20044;-77
2022/07/24 04:43:17;;;;;;;12.37;8.70;;;;;;;;;;6189961;28;20026;-77
2022/07/24 04:46:17;;;;;;;15.37;9.00;;;;;;;;;;6169352;28;20026;-78
2022/07/24 04:49:18;;;;;;;17.93;9.27;;;;;;;;;;6152669;28;20023;-78
2022/07/24 04:52:18;;;;;;;12.23;9.27;;;;;;;;;;6168058;28;20023;-78
2022/07/24 04:55:18;;;;;;;12.33;9.37;;;;;;;;;;6171769;28;20018;-78
2022/07/24 04:58:18;;;;;;;15.50;9.40;;;;;;;;;;6172681;28;20049;-78
2022/07/24 05:01:18;;;;;;;10.52;7.60;;;;;;;;;;6166121;28;20054;-78
2022/07/24 05:04:19;;;;;;;13.27;8.25;;;;;;;;;;6171786;28;20121;-78
2022/07/24 05:07:19;;;;;;;12.00;8.27;;;;;;;;;;6162506;28;20479;-78
2022/07/24 05:10:19;;;;;;;14.40;8.77;;;;;;;;;;6170984;28;20027;-79
2022/07/24 05:13:19;;;;;;;10.45;7.72;;;;;;;;;;6162194;28;20026;-79
2022/07/24 05:16:19;;;;;;;8.37;6.13;;;;;;;;;;6172883;28;20461;-79
2022/07/24 05:19:20;;;;;;;12.23;7.45;;;;;;;;;;6181527;28;20416;-80
2022/07/24 05:22:20;;;;;;;13.85;6.88;;;;;;;;;;6168661;28;20037;-80
2022/07/24 05:25:20;;;;;;;11.17;7.50;;;;;;;;;;6169229;28;20038;-81
2022/07/24 05:28:20;;;;;;;10.47;6.33;;;;;;;;;;6172463;28;20036;-80
2022/07/24 05:31:21;;;;;;;11.27;6.80;;;;;;;;;;6167064;28;20027;-80
2022/07/24 05:34:22;;;;;;;11.83;7.40;;;;;;;;;;6148322;28;20031;-80
2022/07/24 05:37:22;;;;;;;10.60;6.68;;;;;;;;;;6163907;28;20052;-80
2022/07/24 05:40:23;;;;;;;12.33;6.70;;;;;;;;;;6166824;28;20027;-80
2022/07/24 05:43:23;;;;;;;12.20;7.30;;;;;;;;;;6160439;28;20045;-80
2022/07/24 05:46:23;;;;;;;11.37;5.90;;;;;;;;;;6183485;28;20027;-80
2022/07/24 05:49:23;;;;;;;8.80;4.93;;;;;;;;;;6159778;28;20427;-80
2022/07/24 05:52:23;;;;;;;7.17;4.67;;;;;;;;;;6177671;28;20026;-80
2022/07/24 05:55:24;;;;;;;9.60;5.22;;;;;;;;;;6159027;28;20027;-80
2022/07/24 05:58:24;;;;;;;7.43;4.87;;;;;;;;;;6155619;28;20485;-80
2022/07/24 06:01:24;;;;;;;;;;;;;;;;;;6164866;28;20109;-81
2022/07/24 06:04:24;;;;;;;8.77;4.82;;;;;;;;;;6166369;28;19921;-81
2022/07/24 06:07:24;;;;;;;8.25;5.03;;;;;;;;;;6166133;28;20718;-81
2022/07/24 06:10:25;;;;;;;11.57;5.10;;;;;;;;;;6156069;28;20042;-81
2022/07/24 06:13:25;;;;;;;7.07;4.47;;;;;;;;;;6168992;28;20466;-81
2022/07/24 06:16:25;;;;;;;6.23;4.50;;;;;;;;;;6154817;28;20121;-81
2022/07/24 06:19:26;;;;;;;6.80;4.43;;;;;;;;;;6171903;28;20475;-81
2022/07/24 06:22:26;;;;;;;7.55;3.97;;;;;;;;;;6152988;28;20034;-81
2022/07/24 06:25:26;;;;;;;7.93;4.50;;;;;;;;;;6151467;28;20030;-81
2022/07/24 06:28:26;;;;;;;7.40;4.23;;;;;;;;;;6165235;28;20026;-81
2022/07/24 06:31:27;;;;;;;9.47;4.90;;;;;;;;;;6191568;28;20022;-81
2022/07/24 06:34:27;;;;;;;6.47;4.47;;;;;;;;;;6166655;28;20267;-82
2022/07/24 06:37:27;;;;;;;8.20;4.43;;;;;;;;;;6159868;28;20027;-81
2022/07/24 06:40:28;;;;;;;7.67;5.23;;;;;;;;;;6180907;28;20019;-82
2022/07/24 06:43:28;;;;;;;6.22;4.18;;;;;;;;;;6160681;28;20114;-82
2022/07/24 06:46:29;;;;;;;9.80;4.10;;;;;;;;;;6174662;28;20521;-81
2022/07/24 06:49:29;;;;;;;6.33;3.53;;;;;;;;;;6185605;28;20019;-82
2022/07/24 06:52:29;;;;;;;6.87;3.77;;;;;;;;;;6175595;28;20073;-82
2022/07/24 06:55:29;;;;;;;5.13;3.67;;;;;;;;;;6176847;28;20718;-82
2022/07/24 06:58:30;;;;;;;7.57;4.70;;;;;;;;;;6187464;28;20021;-82
2022/07/24 07:01:30;;;;;;;10.23;4.43;;;;;;;;;;6165219;28;20038;-82
2022/07/24 07:04:30;;;;;;;5.53;3.87;;;;;;;;;;6185047;28;20027;-82
2022/07/24 07:07:30;;;;;;;9.37;4.47;;;;;;;;;;6181241;28;20018;-82
2022/07/24 07:10:31;;;;;;;8.18;4.57;;;;;;;;;;6169141;28;20126;-82
2022/07/24 07:13:31;;;;;;;7.38;3.78;;;;;;;;;;6170924;28;20475;-82
2022/07/24 07:16:31;;;;;;;6.67;4.00;;;;;;;;;;6171821;28;20483;-82
2022/07/24 07:19:31;;;;;;;7.90;3.92;;;;;;;;;;6151059;28;20055;-82
2022/07/24 07:22:32;;;;;;;8.03;3.93;;;;;;;;;;6154431;28;20022;-83
2022/07/24 07:25:32;;;;;;;9.10;3.63;;;;;;;;;;6190783;28;20442;-82
2022/07/24 07:28:32;;;;;;;8.97;4.03;;;;;;;;;;6150780;28;20030;-82
2022/07/24 07:31:32;;;;;;;5.70;3.40;;;;;;;;;;6165622;28;20057;-83
2022/07/24 07:34:32;;;;;;;6.47;3.73;;;;;;;;;;6180702;28;20729;-82
2022/07/24 07:37:33;;;;;;;6.03;3.90;;;;;;;;;;6173661;28;20145;-82
2022/07/24 07:40:33;;;;;;;8.93;4.73;;;;;;;;;;6177101;28;20076;-82
2022/07/24 07:43:33;;;;;;;7.07;4.00;;;;;;;;;;6175132;28;20022;-82
2022/07/24 07:46:33;;;;;;;4.73;3.93;;;;;;;;;;6179795;28;20408;-82
2022/07/24 07:49:34;;;;;;;8.47;4.57;;;;;;;;;;6176660;28;20031;-82
2022/07/24 07:52:34;;;;;;;6.67;5.10;;;;;;;;;;6191639;28;20038;-82
2022/07/24 07:55:34;;;;;;;8.67;4.73;;;;;;;;;;6168715;28;20034;-82
2022/07/24 07:58:34;;;;;;;8.17;5.27;;;;;;;;;;6164426;28;20451;-82
2022/07/24 08:01:35;;;;;;;8.70;5.00;;;;;;;;;;6171111;28;20478;-82
2022/07/24 08:04:36;;;;;;;6.55;4.93;;;;;;;;;;6173363;28;20041;-82
2022/07/24 08:07:36;;;;;;;5.67;4.40;;;;;;;;;;6166658;28;20027;-82
2022/07/24 08:10:36;;;;;;;7.50;4.57;;;;;;;;;;6152549;28;20286;-83
2022/07/24 08:13:36;;;;;;;6.07;4.23;;;;;;;;;;6172956;28;20050;-82
2022/07/24 08:16:36;;;;;;;7.40;4.43;;;;;;;;;;6182499;28;20023;-83
2022/07/24 08:19:37;;;;;;;8.60;4.43;;;;;;;;;;6164526;28;20394;-82
2022/07/24 08:22:37;;;;;;;6.97;4.03;;;;;;;;;;6155055;28;20042;-83
2022/07/24 08:25:37;;;;;;;8.10;4.10;;;;;;;;;;6161918;28;20062;-82
2022/07/24 08:28:38;;;;;;;6.80;4.17;;;;;;;;;;6173837;28;20027;-82
2022/07/24 08:31:38;;;;;;;7.05;3.78;;;;;;;;;;6151191;28;20026;-83
2022/07/24 08:34:39;;;;;;;7.68;3.88;;;;;;;;;;6152037;28;20039;-82
2022/07/24 08:37:39;;;;;;;4.83;3.60;;;;;;;;;;6150908;28;20545;-82
2022/07/24 08:40:40;;;;;;;10.00;4.05;;;;;;;;;;6163001;28;20368;-82
2022/07/24 08:43:41;;;;;;;4.35;3.35;;;;;;;;;;6152164;28;20030;-83
2022/07/24 08:46:42;;;;;;;5.30;3.65;;;;;;;;;;6162182;28;20058;-82
2022/07/24 08:49:44;;;;;;;7.57;3.97;;;;;;;;;;6158354;28;20554;-83
2022/07/24 08:52:47;;;;;;;7.13;3.80;;;;;;;;;;6150078;28;20031;-82
2022/07/24 08:55:48;;;;;;;5.65;3.45;;;;;;;;;;6158511;28;20045;-82
2022/07/24 08:58:51;;;;;;;6.72;3.58;;;;;;;;;;6160236;28;20561;-82
2022/07/24 09:01:53;;;;;;;5.47;3.17;;;;;;;;;;6171570;28;20031;-82
